createdAt,value
2018-05-26T00:00:42.594Z,13.80
2018-05-26T00:03:11.441Z,13.70
2018-05-26T00:05:40.503Z,13.60
2018-05-26T00:08:09.544Z,13.60
2018-05-26T00:10:38.725Z,13.60
2018-05-26T00:13:07.821Z,13.50
2018-05-26T00:15:36.820Z,13.40
2018-05-26T00:18:06.420Z,13.40
2018-05-26T00:20:35.406Z,13.40
2018-05-26T00:23:04.614Z,13.30
2018-05-26T00:25:33.579Z,13.30
2018-05-26T00:28:02.307Z,13.20
2018-05-26T00:30:30.976Z,13.20
2018-05-26T00:33:00.045Z,13.10
2018-05-26T00:35:28.810Z,13.10
2018-05-26T00:37:58.201Z,13.10
2018-05-26T00:40:27.053Z,13.00
2018-05-26T00:42:55.744Z,13.00
2018-05-26T00:45:24.777Z,13.00
2018-05-26T00:47:53.931Z,13.00
2018-05-26T00:50:22.960Z,13.00
2018-05-26T00:52:52.027Z,12.90
2018-05-26T00:55:20.718Z,12.90
2018-05-26T00:57:49.860Z,12.80
2018-05-26T01:00:18.531Z,12.80
2018-05-26T01:02:47.685Z,12.80
2018-05-26T01:05:16.781Z,12.80
2018-05-26T01:07:45.780Z,12.70
2018-05-26T01:10:14.558Z,12.70
2018-05-26T01:12:43.590Z,12.70
2018-05-26T01:15:12.752Z,12.70
2018-05-26T01:17:41.701Z,12.60
2018-05-26T01:20:10.414Z,12.60
2018-05-26T01:22:39.633Z,12.60
2018-05-26T01:25:08.648Z,12.60
2018-05-26T01:27:38.228Z,12.50
2018-05-26T01:30:07.325Z,12.50
2018-05-26T01:32:36.419Z,12.50
2018-05-26T01:35:05.444Z,12.40
2018-05-26T01:37:34.609Z,12.40
2018-05-26T01:40:03.551Z,12.40
2018-05-26T01:42:32.393Z,12.30
2018-05-26T01:45:01.338Z,12.30
2018-05-26T01:47:30.050Z,12.30
2018-05-26T01:49:58.745Z,12.30
2018-05-26T01:52:27.548Z,12.30
2018-05-26T01:54:56.554Z,12.30
2018-05-26T01:57:25.248Z,12.30
2018-05-26T01:59:54.012Z,12.20
2018-05-26T02:02:23.004Z,12.20
2018-05-26T02:04:51.699Z,12.20
2018-05-26T02:07:20.364Z,12.20
2018-05-26T02:09:49.154Z,12.20
2018-05-26T02:12:18.262Z,12.20
2018-05-26T02:14:47.361Z,12.10
2018-05-26T02:17:16.281Z,12.10
2018-05-26T02:19:45.023Z,12.10
2018-05-26T02:22:13.821Z,12.10
2018-05-26T02:24:42.459Z,12.10
2018-05-26T02:33:54.980Z,12.10
2018-05-26T02:36:24.093Z,12.00
2018-05-26T02:38:53.257Z,12.00
2018-05-26T02:41:22.202Z,12.00
2018-05-26T02:43:50.946Z,12.00
2018-05-26T02:46:19.988Z,12.10
2018-05-26T02:48:48.805Z,12.20
2018-05-26T02:51:17.916Z,12.20
2018-05-26T02:53:46.539Z,12.20
2018-05-26T02:56:15.279Z,12.20
2018-05-26T02:58:44.382Z,12.40
2018-05-26T03:01:13.366Z,12.80
2018-05-26T03:03:42.571Z,13.50
2018-05-26T03:06:17.322Z,14.50
2018-05-26T03:08:51.739Z,15.50
2018-05-26T03:11:26.156Z,16.50
2018-05-26T03:14:00.951Z,17.50
2018-05-26T03:16:30.578Z,18.50
2018-05-26T03:18:59.559Z,19.30
2018-05-26T03:21:28.249Z,20.10
2018-05-26T03:23:57.454Z,20.90
2018-05-26T03:26:26.435Z,21.40
2018-05-26T03:28:55.035Z,22.00
2018-05-26T03:31:23.919Z,22.40
2018-05-26T03:33:52.587Z,22.50
2018-05-26T03:36:21.771Z,22.30
2018-05-26T03:38:50.797Z,21.80
2018-05-26T03:41:19.813Z,21.10
2018-05-26T03:43:48.481Z,20.30
2018-05-26T03:46:17.226Z,20.00
2018-05-26T03:48:46.264Z,20.10
2018-05-26T03:51:15.455Z,20.60
2018-05-26T03:53:44.550Z,21.30
2018-05-26T03:56:25.443Z,22.00
2018-05-26T04:01:57.585Z,23.30
2018-05-26T04:04:26.804Z,23.70
2018-05-26T04:06:55.821Z,24.40
2018-05-26T04:09:24.491Z,24.80
2018-05-26T04:11:54.094Z,25.20
2018-05-26T04:14:23.103Z,25.40
2018-05-26T04:16:52.191Z,25.70
2018-05-26T04:19:20.881Z,25.50
2018-05-26T04:21:49.393Z,25.90
2018-05-26T04:24:17.934Z,26.20
2018-05-26T04:26:47.012Z,26.60
2018-05-26T04:29:16.051Z,26.70
2018-05-26T04:31:45.220Z,27.10
2018-05-26T04:34:14.238Z,27.40
2018-05-26T04:36:43.253Z,27.60
2018-05-26T04:39:12.096Z,27.80
2018-05-26T04:41:41.116Z,28.20
2018-05-26T04:44:09.649Z,28.50
2018-05-26T04:46:39.588Z,28.60
2018-05-26T04:49:08.481Z,28.60
2018-05-26T04:51:37.459Z,28.80
2018-05-26T04:54:06.182Z,29.00
2018-05-26T04:56:35.269Z,29.30
2018-05-26T04:59:04.361Z,29.50
2018-05-26T05:01:33.052Z,29.30
2018-05-26T05:04:01.823Z,29.50
2018-05-26T05:06:30.917Z,29.40
2018-05-26T05:09:00.016Z,29.30
2018-05-26T05:11:28.617Z,29.20
2018-05-26T05:13:57.641Z,29.20
2018-05-26T05:16:26.388Z,29.10
2018-05-26T05:18:55.402Z,28.70
2018-05-26T05:21:24.264Z,28.80
2018-05-26T05:23:53.288Z,28.80
2018-05-26T05:26:22.453Z,28.70
2018-05-26T05:28:51.961Z,28.90
2018-05-26T05:31:21.058Z,29.10
2018-05-26T05:33:50.149Z,29.10
2018-05-26T05:36:19.656Z,29.20
2018-05-26T05:38:48.175Z,29.20
2018-05-26T05:41:17.029Z,29.40
2018-05-26T05:43:46.124Z,29.40
2018-05-26T05:46:15.068Z,28.90
2018-05-26T05:48:43.785Z,28.50
2018-05-26T05:51:14.808Z,28.20
2018-05-26T05:53:44.873Z,27.90
2018-05-26T05:56:13.585Z,27.30
2018-05-26T05:58:43.156Z,26.60
2018-05-26T06:01:12.173Z,26.30
2018-05-26T06:03:40.841Z,25.90
2018-05-26T06:06:09.884Z,25.20
2018-05-26T06:08:38.979Z,24.50
2018-05-26T06:11:07.816Z,23.90
2018-05-26T06:13:37.314Z,23.30
2018-05-26T06:16:06.006Z,22.70
2018-05-26T06:18:34.493Z,22.50
2018-05-26T06:21:03.380Z,22.50
2018-05-26T06:23:32.033Z,22.60
2018-05-26T06:26:01.159Z,22.70
2018-05-26T06:28:29.783Z,22.90
2018-05-26T06:30:58.269Z,23.00
2018-05-26T06:33:26.788Z,23.20
2018-05-26T06:35:55.314Z,23.30
2018-05-26T06:38:23.884Z,23.50
2018-05-26T06:40:52.391Z,23.70
2018-05-26T06:43:20.974Z,23.80
2018-05-26T06:45:49.467Z,23.60
2018-05-26T06:48:17.997Z,23.50
2018-05-26T06:50:47.270Z,23.20
2018-05-26T06:53:16.520Z,22.90
2018-05-26T06:55:45.395Z,22.90
2018-05-26T06:58:14.722Z,22.50
2018-05-26T07:00:43.249Z,22.20
2018-05-26T07:03:13.009Z,22.10
2018-05-26T07:05:41.563Z,22.10
2018-05-26T07:08:10.066Z,21.80
2018-05-26T07:10:39.144Z,21.70
2018-05-26T07:13:07.628Z,21.60
2018-05-26T07:15:36.395Z,21.40
2018-05-26T07:18:05.356Z,21.30
2018-05-26T07:20:34.206Z,21.10
2018-05-26T07:23:02.693Z,21.00
2018-05-26T07:25:31.614Z,20.90
2018-05-26T07:28:00.684Z,20.80
2018-05-26T07:30:29.452Z,20.90
2018-05-26T07:33:00.180Z,20.90
2018-05-26T07:35:30.081Z,21.20
2018-05-26T07:37:58.763Z,21.30
2018-05-26T07:40:27.524Z,21.60
2018-05-26T07:42:56.012Z,21.50
2018-05-26T07:45:25.102Z,21.70
2018-05-26T07:47:53.704Z,21.80
2018-05-26T07:50:22.620Z,21.90
2018-05-26T07:52:51.719Z,21.80
2018-05-26T07:55:20.970Z,21.80
2018-05-26T07:57:51.040Z,21.80
2018-05-26T08:00:20.390Z,22.10
2018-05-26T08:02:49.532Z,22.10
2018-05-26T08:05:19.584Z,22.30
2018-05-26T08:07:48.284Z,22.60
2018-05-26T08:10:17.435Z,22.90
2018-05-26T08:12:46.093Z,23.20
2018-05-26T08:15:14.811Z,23.20
2018-05-26T08:17:43.305Z,23.40
2018-05-26T08:20:12.072Z,23.50
2018-05-26T08:22:40.861Z,23.50
2018-05-26T08:25:09.881Z,23.80
2018-05-26T08:27:38.479Z,24.00
2018-05-26T08:30:07.784Z,24.50
2018-05-26T08:32:36.807Z,24.40
2018-05-26T08:35:05.314Z,24.40
2018-05-26T08:37:34.212Z,24.40
2018-05-26T08:40:02.883Z,24.40
2018-05-26T08:42:31.420Z,24.60
2018-05-26T08:45:00.267Z,24.80
2018-05-26T08:47:29.370Z,24.90
2018-05-26T08:49:57.855Z,24.90
2018-05-26T08:52:26.735Z,24.90
2018-05-26T08:54:55.355Z,24.80
2018-05-26T08:57:24.032Z,24.80
2018-05-26T08:59:52.542Z,24.70
2018-05-26T09:02:21.407Z,24.40
2018-05-26T09:04:50.047Z,24.10
2018-05-26T09:07:19.326Z,23.80
2018-05-26T09:09:47.828Z,23.80
2018-05-26T09:12:17.079Z,23.90
2018-05-26T09:14:45.606Z,23.90
2018-05-26T09:17:14.694Z,24.00
2018-05-26T09:19:43.410Z,23.90
2018-05-26T09:22:12.579Z,23.80
2018-05-26T09:24:41.078Z,23.50
2018-05-26T09:27:09.687Z,23.30
2018-05-26T09:29:38.183Z,23.30
2018-05-26T09:32:06.689Z,23.30
2018-05-26T09:34:35.989Z,23.40
2018-05-26T09:37:04.924Z,23.40
2018-05-26T09:39:33.467Z,23.30
2018-05-26T09:42:01.957Z,23.30
2018-05-26T09:44:30.714Z,23.30
2018-05-26T09:46:59.181Z,23.30
2018-05-26T09:49:28.151Z,23.20
2018-05-26T09:51:56.842Z,23.20
2018-05-26T09:54:25.346Z,23.20
2018-05-26T09:56:53.949Z,23.20
2018-05-26T09:59:22.896Z,23.30
2018-05-26T10:01:51.389Z,23.40
2018-05-26T10:04:20.183Z,23.70
2018-05-26T10:06:49.363Z,23.90
2018-05-26T10:09:18.019Z,24.20
2018-05-26T10:11:48.263Z,24.20
2018-05-26T10:14:16.970Z,24.10
2018-05-26T10:16:45.738Z,24.10
2018-05-26T10:19:14.239Z,24.30
2018-05-26T10:21:42.763Z,24.30
2018-05-26T10:24:11.239Z,24.40
2018-05-26T10:26:39.980Z,24.40
2018-05-26T10:29:08.456Z,24.40
2018-05-26T10:31:38.116Z,24.20
2018-05-26T10:34:06.957Z,24.20
2018-05-26T10:36:36.057Z,24.40
2018-05-26T10:39:04.597Z,24.40
2018-05-26T10:41:33.113Z,24.50
2018-05-26T10:44:01.719Z,24.50
2018-05-26T10:46:30.345Z,24.60
2018-05-26T10:48:59.372Z,24.50
2018-05-26T10:51:28.156Z,24.60
2018-05-26T10:53:56.749Z,24.60
2018-05-26T10:56:25.357Z,24.60
2018-05-26T10:58:54.014Z,24.70
2018-05-26T11:01:22.486Z,24.90
2018-05-26T11:03:51.596Z,25.00
2018-05-26T11:06:20.121Z,25.10
2018-05-26T11:08:48.632Z,25.10
2018-05-26T11:11:17.168Z,25.20
2018-05-26T11:13:45.619Z,25.10
2018-05-26T11:16:15.045Z,25.10
2018-05-26T11:18:43.706Z,25.10
2018-05-26T11:21:12.163Z,25.10
2018-05-26T11:23:40.650Z,25.20
2018-05-26T11:26:09.185Z,25.30
2018-05-26T11:28:37.760Z,25.60
2018-05-26T11:31:07.579Z,25.70
2018-05-26T11:33:36.241Z,25.70
2018-05-26T11:36:04.728Z,25.80
2018-05-26T11:38:33.331Z,25.70
2018-05-26T11:41:02.297Z,25.70
2018-05-26T11:43:30.815Z,25.60
2018-05-26T11:45:59.389Z,25.60
2018-05-26T11:48:27.960Z,25.60
2018-05-26T11:50:56.973Z,25.70
2018-05-26T11:53:25.456Z,25.90
2018-05-26T11:55:54.205Z,26.00
2018-05-26T11:58:22.717Z,26.10
2018-05-26T12:00:52.518Z,26.10
2018-05-26T12:03:21.488Z,26.00
2018-05-26T12:05:50.381Z,25.80
2018-05-26T12:08:18.862Z,25.70
2018-05-26T12:10:48.548Z,25.90
2018-05-26T12:13:18.590Z,25.90
2018-05-26T12:15:47.571Z,25.90
2018-05-26T12:18:16.040Z,26.00
2018-05-26T12:20:44.602Z,26.00
2018-05-26T12:23:13.200Z,26.00
2018-05-26T12:25:41.920Z,26.00
2018-05-26T12:28:11.017Z,26.00
2018-05-26T12:30:39.837Z,26.00
2018-05-26T12:33:08.441Z,26.00
2018-05-26T12:35:37.412Z,25.90
2018-05-26T12:38:06.551Z,26.00
2018-05-26T12:40:35.158Z,26.00
2018-05-26T12:43:03.945Z,26.10
2018-05-26T12:45:33.048Z,26.20
2018-05-26T12:48:01.585Z,26.20
2018-05-26T12:50:30.851Z,26.20
2018-05-26T12:53:00.631Z,26.30
2018-05-26T12:55:29.348Z,26.30
2018-05-26T12:57:58.527Z,26.40
2018-05-26T13:00:27.510Z,26.40
2018-05-26T13:02:56.074Z,26.50
2018-05-26T13:05:24.985Z,26.60
2018-05-26T13:07:53.486Z,26.50
2018-05-26T13:10:22.018Z,26.50
2018-05-26T13:12:50.572Z,26.50
2018-05-26T13:15:19.041Z,26.40
2018-05-26T13:17:47.553Z,26.50
2018-05-26T13:20:16.067Z,26.50
2018-05-26T13:22:44.973Z,26.40
2018-05-26T13:25:13.588Z,26.40
2018-05-26T13:27:43.053Z,26.50
2018-05-26T13:30:11.656Z,26.60
2018-05-26T13:32:40.123Z,26.60
2018-05-26T13:35:08.635Z,26.70
2018-05-26T13:37:37.085Z,26.70
2018-05-26T13:40:06.182Z,26.70
2018-05-26T13:42:35.558Z,26.80
2018-05-26T13:45:04.119Z,26.90
2018-05-26T13:47:32.761Z,27.10
2018-05-26T13:50:02.035Z,27.10
2018-05-26T13:52:31.308Z,27.30
2018-05-26T13:55:00.274Z,27.30
2018-05-26T13:57:29.385Z,27.20
2018-05-26T13:59:57.928Z,27.30
2018-05-26T14:02:27.093Z,27.30
2018-05-26T14:04:56.426Z,27.20
2018-05-26T14:07:24.906Z,27.20
2018-05-26T14:09:53.623Z,27.30
2018-05-26T14:12:22.290Z,27.40
2018-05-26T14:14:50.802Z,27.40
2018-05-26T14:17:19.340Z,27.40
2018-05-26T14:19:48.435Z,27.50
2018-05-26T14:22:16.935Z,27.40
2018-05-26T14:24:46.127Z,27.50
2018-05-26T14:27:14.794Z,27.60
2018-05-26T14:29:44.071Z,27.60
2018-05-26T14:32:13.104Z,27.60
2018-05-26T14:34:41.577Z,27.60
2018-05-26T14:37:10.095Z,27.60
2018-05-26T14:39:38.564Z,27.80
2018-05-26T14:42:07.083Z,28.10
2018-05-26T14:44:35.603Z,28.00
2018-05-26T14:47:04.709Z,27.90
2018-05-26T14:49:33.476Z,27.90
2018-05-26T14:52:02.991Z,28.00
2018-05-26T14:54:31.984Z,28.00
2018-05-26T14:57:00.974Z,27.90
2018-05-26T14:59:29.869Z,28.00
2018-05-26T15:01:58.380Z,27.90
2018-05-26T15:04:27.129Z,28.00
2018-05-26T15:06:55.822Z,28.10
2018-05-26T15:09:25.025Z,28.20
2018-05-26T15:11:53.645Z,28.20
2018-05-26T15:14:22.725Z,28.20
2018-05-26T15:16:51.392Z,27.90
2018-05-26T15:19:20.069Z,27.80
2018-05-26T15:21:48.780Z,27.70
2018-05-26T15:24:17.469Z,27.80
2018-05-26T15:26:46.561Z,27.80
2018-05-26T15:29:16.145Z,27.80
2018-05-26T15:31:44.641Z,27.90
2018-05-26T15:34:13.122Z,27.80
2018-05-26T15:36:42.181Z,27.90
2018-05-26T15:39:11.302Z,27.90
2018-05-26T15:41:39.967Z,27.80
2018-05-26T15:44:08.982Z,27.90
2018-05-26T15:46:37.679Z,28.10
2018-05-26T15:49:06.447Z,28.20
2018-05-26T15:51:35.140Z,28.10
2018-05-26T15:54:04.033Z,28.10
2018-05-26T15:56:32.920Z,28.10
2018-05-26T15:59:01.609Z,28.00
2018-05-26T16:01:30.710Z,28.10
2018-05-26T16:03:59.592Z,28.10
2018-05-26T16:06:28.892Z,28.20
2018-05-26T16:08:57.908Z,28.20
2018-05-26T16:11:27.089Z,28.10
2018-05-26T16:13:56.179Z,27.90
2018-05-26T16:16:25.278Z,27.80
2018-05-26T16:18:54.228Z,27.80
2018-05-26T16:21:22.944Z,27.60
2018-05-26T16:23:51.661Z,27.60
2018-05-26T16:26:20.841Z,27.60
2018-05-26T16:28:49.529Z,27.60
2018-05-26T16:31:18.541Z,27.60
2018-05-26T16:33:47.102Z,27.60
2018-05-26T16:36:15.990Z,27.60
2018-05-26T16:38:44.967Z,27.50
2018-05-26T16:41:13.688Z,27.50
2018-05-26T16:43:42.873Z,27.40
2018-05-26T16:46:11.547Z,27.40
2018-05-26T16:48:40.651Z,27.30
